Check out our new BloomSky Weather System.

Active alerts


No alerts


Thunder radar  blitzortung!


Rain radar more information rain snow radar


Visit our other weather sites:

Template documentation
and downloads

And another site



Weather Underground History page Text

Daily Summary for August 9, 2017 Units:  English    Metric   Both
« Previous Day
Next Day »
Daily Weekly Monthly Yearly Custom
  High: Low: Average:
Temperature: 94.5 °F 75.7 °F 82.9 °F
Dew Point: 80.2 °F 74.8 °F 77.5 °F
Humidity: 98 % 60 % 85 %
Wind Speed: 6.0 mph 0.0 mph 0.9 mph
Wind Gust: 8.0 mph - -
Wind:- - WSW
Pressure: 30.03 in 29.93 in -
Precipitation: 0.00 in    
Historical Graphs
 
 
Tabular Data for August 9, 2017
Time Temperature Dew Point Pressure Wind Wind Speed Wind Gust Humidity Rainfall Rate (Hourly)
00:02 77.7 °F 76.1 °F 29.96 in Calm   3.0 mph 95 % 0.00 in
00:07 77.7 °F 76.1 °F 29.96 in Calm   2.0 mph 95 % 0.00 in
00:12 77.7 °F 76.1 °F 29.96 in NW 1.0 mph 2.0 mph 95 % 0.00 in
00:17 77.7 °F 76.1 °F 29.95 in NW 1.0 mph 2.0 mph 95 % 0.00 in
00:22 77.5 °F 75.9 °F 29.96 in Calm   1.0 mph 95 % 0.00 in
00:27 77.5 °F 75.9 °F 29.95 in Calm   1.0 mph 95 % 0.00 in
00:32 77.5 °F 75.9 °F 29.95 in Calm   1.0 mph 95 % 0.00 in
00:37 77.5 °F 75.9 °F 29.95 in Calm   1.0 mph 95 % 0.00 in
00:42 77.5 °F 76.3 °F 29.95 in Calm   2.0 mph 96 % 0.00 in
00:47 77.4 °F 76.1 °F 29.95 in NNW 1.0 mph 2.0 mph 96 % 0.00 in
00:52 77.4 °F 76.1 °F 29.94 in Calm   2.0 mph 96 % 0.00 in
00:57 77.4 °F 76.1 °F 29.94 in NNW 2.0 mph 3.0 mph 96 % 0.00 in
01:02 77.4 °F 76.1 °F 29.94 in Calm   4.0 mph 96 % 0.00 in
01:07 77.2 °F 75.9 °F 29.94 in Calm   4.0 mph 96 % 0.00 in
01:12 77.2 °F 75.9 °F 29.94 in Calm   4.0 mph 96 % 0.00 in
01:17 76.8 °F 75.6 °F 29.94 in Calm   3.0 mph 96 % 0.00 in
01:22 76.8 °F 75.6 °F 29.94 in Calm   3.0 mph 96 % 0.00 in
01:27 76.6 °F 75.4 °F 29.94 in Calm   2.0 mph 96 % 0.00 in
01:32 76.5 °F 75.2 °F 29.94 in NNW 1.0 mph 2.0 mph 96 % 0.00 in
01:37 76.5 °F 75.2 °F 29.94 in NNW 1.0 mph 2.0 mph 96 % 0.00 in
01:42 76.5 °F 75.2 °F 29.94 in Calm   2.0 mph 96 % 0.00 in
01:47 76.3 °F 75.4 °F 29.94 in Calm   2.0 mph 97 % 0.00 in
01:52 76.3 °F 75.4 °F 29.94 in Calm   2.0 mph 97 % 0.00 in
01:57 76.1 °F 75.2 °F 29.94 in Calm   2.0 mph 97 % 0.00 in
02:02 75.9 °F 75.0 °F 29.94 in Calm   2.0 mph 97 % 0.00 in
02:07 75.9 °F 75.0 °F 29.94 in Calm     97 % 0.00 in
02:12 75.9 °F 75.0 °F 29.94 in Calm   1.0 mph 97 % 0.00 in
02:17 75.7 °F 74.8 °F 29.94 in Calm   1.0 mph 97 % 0.00 in
02:22 75.7 °F 74.8 °F 29.94 in Calm   1.0 mph 97 % 0.00 in
02:23 75.7 °F 74.8 °F 29.94 in Calm   1.0 mph 97 % 0.00 in
02:28 75.7 °F 74.8 °F 29.94 in Calm   2.0 mph 97 % 0.00 in
02:33 75.7 °F 74.8 °F 29.94 in Calm   2.0 mph 97 % 0.00 in
02:38 75.9 °F 75.4 °F 29.94 in Calm   2.0 mph 98 % 0.00 in
02:43 75.9 °F 75.4 °F 29.94 in Calm   1.0 mph 98 % 0.00 in
02:48 75.9 °F 75.4 °F 29.94 in Calm   1.0 mph 98 % 0.00 in
02:53 76.1 °F 75.6 °F 29.94 in Calm   1.0 mph 98 % 0.00 in
02:58 76.1 °F 75.6 °F 29.94 in Calm   1.0 mph 98 % 0.00 in
03:03 76.3 °F 75.7 °F 29.94 in Calm   2.0 mph 98 % 0.00 in
03:08 76.3 °F 75.4 °F 29.93 in Calm   2.0 mph 97 % 0.00 in
03:13 76.3 °F 75.4 °F 29.93 in NW 1.0 mph 2.0 mph 97 % 0.00 in
03:18 76.3 °F 75.4 °F 29.93 in Calm   2.0 mph 97 % 0.00 in
03:23 76.3 °F 75.4 °F 29.93 in Calm   2.0 mph 97 % 0.00 in
03:28 76.3 °F 75.4 °F 29.93 in Calm   2.0 mph 97 % 0.00 in
03:33 76.3 °F 75.4 °F 29.93 in NW 1.0 mph 1.0 mph 97 % 0.00 in
03:38 76.3 °F 75.4 °F 29.93 in NW 1.0 mph 2.0 mph 97 % 0.00 in
03:43 76.3 °F 75.4 °F 29.93 in Calm   2.0 mph 97 % 0.00 in
03:48 76.3 °F 75.4 °F 29.93 in Calm   2.0 mph 97 % 0.00 in
03:53 76.3 °F 75.4 °F 29.93 in Calm   2.0 mph 97 % 0.00 in
03:58 76.3 °F 75.4 °F 29.93 in NNW 1.0 mph 2.0 mph 97 % 0.00 in
04:03 76.3 °F 75.4 °F 29.93 in Calm   2.0 mph 97 % 0.00 in
04:08 76.3 °F 75.4 °F 29.93 in Calm   2.0 mph 97 % 0.00 in
04:13 76.3 °F 75.4 °F 29.93 in Calm   2.0 mph 97 % 0.00 in
04:18 76.3 °F 75.4 °F 29.93 in Calm   1.0 mph 97 % 0.00 in
04:23 76.3 °F 75.4 °F 29.93 in Calm   1.0 mph 97 % 0.00 in
04:28 76.3 °F 75.4 °F 29.93 in Calm   1.0 mph 97 % 0.00 in
04:33 76.3 °F 75.4 °F 29.94 in Calm   1.0 mph 97 % 0.00 in
04:38 76.3 °F 75.4 °F 29.93 in NNW 1.0 mph 1.0 mph 97 % 0.00 in
04:43 76.3 °F 75.4 °F 29.94 in Calm   2.0 mph 97 % 0.00 in
04:48 76.5 °F 75.6 °F 29.94 in Calm   2.0 mph 97 % 0.00 in
04:53 76.5 °F 75.6 °F 29.94 in Calm   2.0 mph 97 % 0.00 in
04:58 76.5 °F 75.6 °F 29.94 in Calm   1.0 mph 97 % 0.00 in
05:03 76.5 °F 75.6 °F 29.93 in Calm   1.0 mph 97 % 0.00 in
05:08 76.5 °F 75.6 °F 29.94 in NNW 1.0 mph 1.0 mph 97 % 0.00 in
05:13 76.5 °F 75.6 °F 29.94 in Calm   2.0 mph 97 % 0.00 in
05:18 76.5 °F 75.6 °F 29.94 in Calm   3.0 mph 97 % 0.00 in
05:23 76.5 °F 75.6 °F 29.94 in Calm   3.0 mph 97 % 0.00 in
05:29 76.5 °F 75.6 °F 29.93 in Calm   3.0 mph 97 % 0.00 in
05:34 76.5 °F 75.6 °F 29.94 in Calm   1.0 mph 97 % 0.00 in
05:39 76.5 °F 75.6 °F 29.94 in Calm   1.0 mph 97 % 0.00 in
05:44 76.5 °F 75.6 °F 29.94 in Calm   1.0 mph 97 % 0.00 in
05:49 76.5 °F 75.6 °F 29.94 in Calm   1.0 mph 97 % 0.00 in
05:54 76.5 °F 75.6 °F 29.94 in Calm   1.0 mph 97 % 0.00 in
05:59 76.5 °F 75.6 °F 29.94 in Calm   1.0 mph 97 % 0.00 in
06:04 76.5 °F 75.6 °F 29.94 in Calm   1.0 mph 97 % 0.00 in
06:09 76.5 °F 75.6 °F 29.94 in Calm   1.0 mph 97 % 0.00 in
06:14 76.5 °F 75.6 °F 29.94 in Calm   1.0 mph 97 % 0.00 in
06:19 76.5 °F 75.6 °F 29.94 in Calm   1.0 mph 97 % 0.00 in
06:24 76.5 °F 75.6 °F 29.94 in Calm   1.0 mph 97 % 0.00 in
06:29 76.5 °F 75.6 °F 29.94 in Calm   2.0 mph 97 % 0.00 in
06:34 76.5 °F 75.6 °F 29.94 in Calm   2.0 mph 97 % 0.00 in
06:39 76.5 °F 75.6 °F 29.95 in NW 1.0 mph 2.0 mph 97 % 0.00 in
06:44 76.6 °F 75.7 °F 29.94 in Calm   2.0 mph 97 % 0.00 in
06:49 76.6 °F 75.7 °F 29.94 in Calm   2.0 mph 97 % 0.00 in
06:54 76.6 °F 75.7 °F 29.95 in Calm   2.0 mph 97 % 0.00 in
06:56 76.6 °F 75.7 °F 29.95 in Calm   1.0 mph 97 % 0.00 in
06:59 76.6 °F 75.7 °F 29.95 in Calm   1.0 mph 97 % 0.00 in
07:04 76.6 °F 75.7 °F 29.95 in Calm   1.0 mph 97 % 0.00 in
07:09 76.6 °F 75.7 °F 29.95 in Calm     97 % 0.00 in
07:14 76.6 °F 75.7 °F 29.96 in Calm   1.0 mph 97 % 0.00 in
07:19 76.6 °F 75.7 °F 29.96 in Calm   1.0 mph 97 % 0.00 in
07:25 76.8 °F 75.9 °F 29.96 in Calm   1.0 mph 97 % 0.00 in
07:30 76.8 °F 75.9 °F 29.96 in Calm   1.0 mph 97 % 0.00 in
07:35 76.8 °F 75.9 °F 29.96 in Calm   1.0 mph 97 % 0.00 in
07:40 77.2 °F 76.3 °F 29.96 in Calm   1.0 mph 97 % 0.00 in
07:45 77.2 °F 76.3 °F 29.96 in NW 1.0 mph 2.0 mph 97 % 0.00 in
07:50 77.4 °F 76.5 °F 29.97 in Calm   2.0 mph 97 % 0.00 in
07:55 77.4 °F 76.1 °F 29.97 in NW 1.0 mph 2.0 mph 96 % 0.00 in
08:00 77.4 °F 76.1 °F 29.97 in NW 1.0 mph 3.0 mph 96 % 0.00 in
08:05 77.7 °F 76.5 °F 29.97 in NW 1.0 mph 3.0 mph 96 % 0.00 in
08:10 78.1 °F 76.5 °F 29.97 in NW 1.0 mph 3.0 mph 95 % 0.00 in
08:15 78.1 °F 76.3 °F 29.97 in NW 1.0 mph 2.0 mph 94 % 0.00 in
08:20 78.3 °F 76.5 °F 29.97 in Calm   2.0 mph 94 % 0.00 in
08:25 78.4 °F 76.6 °F 29.97 in Calm   3.0 mph 94 % 0.00 in
08:30 78.6 °F 76.8 °F 29.98 in West 3.0 mph 3.0 mph 94 % 0.00 in
08:35 78.6 °F 76.5 °F 29.97 in NW 1.0 mph 4.0 mph 93 % 0.00 in
08:40 79.0 °F 76.8 °F 29.97 in NW 1.0 mph 4.0 mph 93 % 0.00 in
08:43 79.0 °F 76.5 °F 29.98 in Calm   4.0 mph 92 % 0.00 in
08:48 79.2 °F 76.6 °F 29.98 in NW 1.0 mph 3.0 mph 92 % 0.00 in
08:53 79.3 °F 76.5 °F 29.98 in NNW 1.0 mph 3.0 mph 91 % 0.00 in
08:58 79.3 °F 76.5 °F 29.98 in WNW 2.0 mph 5.0 mph 91 % 0.00 in
09:03 79.7 °F 76.8 °F 29.98 in Calm   5.0 mph 91 % 0.00 in
09:08 80.4 °F 77.2 °F 29.98 in Calm   5.0 mph 90 % 0.00 in
09:13 80.8 °F 77.2 °F 29.98 in Calm   4.0 mph 89 % 0.00 in
09:18 81.0 °F 77.4 °F 29.98 in Calm   4.0 mph 89 % 0.00 in
09:23 81.5 °F 77.9 °F 29.98 in WSW 2.0 mph 5.0 mph 89 % 0.00 in
09:28 81.9 °F 77.5 °F 29.99 in Calm   5.0 mph 87 % 0.00 in
09:33 82.2 °F 77.9 °F 29.98 in Calm   5.0 mph 87 % 0.00 in
09:38 82.6 °F 78.6 °F 29.98 in Calm   4.0 mph 88 % 0.00 in
09:43 82.6 °F 77.5 °F 29.98 in NNW 3.0 mph 4.0 mph 85 % 0.00 in
09:48 82.6 °F 77.5 °F 29.99 in WNW 2.0 mph 4.0 mph 85 % 0.00 in
09:53 82.9 °F 79.0 °F 29.99 in Calm   5.0 mph 88 % 0.00 in
09:58 83.7 °F 77.9 °F 29.99 in NW 1.0 mph 5.0 mph 83 % 0.00 in
10:03 83.1 °F 77.4 °F 29.99 in NNW 2.0 mph 6.0 mph 83 % 0.00 in
10:08 83.5 °F 78.1 °F 29.99 in Calm   6.0 mph 84 % 0.00 in
10:13 83.7 °F 78.3 °F 29.99 in SSW 1.0 mph 6.0 mph 84 % 0.00 in
10:18 83.7 °F 77.5 °F 29.99 in Calm   6.0 mph 82 % 0.00 in
10:23 83.3 °F 77.2 °F 29.99 in WNW 2.0 mph 4.0 mph 82 % 0.00 in
10:28 83.7 °F 77.9 °F 29.99 in NW 2.0 mph 5.0 mph 83 % 0.00 in
10:33 84.0 °F 78.3 °F 29.99 in SSW 2.0 mph 5.0 mph 83 % 0.00 in
10:38 84.4 °F 77.9 °F 29.99 in Calm   5.0 mph 81 % 0.00 in
10:43 84.4 °F 78.3 °F 29.99 in West 1.0 mph 5.0 mph 82 % 0.00 in
10:48 84.0 °F 77.5 °F 29.99 in Calm   5.0 mph 81 % 0.00 in
10:53 84.4 °F 77.9 °F 29.99 in West 3.0 mph 5.0 mph 81 % 0.00 in
10:59 84.4 °F 77.5 °F 29.99 in WNW 1.0 mph 5.0 mph 80 % 0.00 in
11:04 84.6 °F 77.7 °F 29.99 in SE 1.0 mph 5.0 mph 80 % 0.00 in
11:09 84.9 °F 78.1 °F 29.99 in NW 3.0 mph 5.0 mph 80 % 0.00 in
11:14 85.6 °F 78.4 °F 29.99 in ESE 1.0 mph 5.0 mph 79 % 0.00 in
11:19 86.2 °F 77.7 °F 29.99 in West 1.0 mph 5.0 mph 76 % 0.00 in
11:24 86.2 °F 77.7 °F 29.99 in West 2.0 mph 5.0 mph 76 % 0.00 in
11:29 86.0 °F 77.9 °F 29.99 in West 1.0 mph 4.0 mph 77 % 0.00 in
11:34 85.6 °F 77.2 °F 29.99 in SW 1.0 mph 3.0 mph 76 % 0.00 in
11:39 85.8 °F 77.7 °F 29.99 in North 1.0 mph 3.0 mph 77 % 0.00 in
11:44 86.2 °F 79.0 °F 29.99 in WNW 1.0 mph 4.0 mph 79 % 0.00 in
11:49 87.1 °F 77.7 °F 29.99 in Calm   4.0 mph 74 % 0.00 in
11:54 87.3 °F 77.5 °F 29.99 in North 1.0 mph 5.0 mph 73 % 0.00 in
11:59 86.7 °F 77.4 °F 29.99 in WNW 4.0 mph 5.0 mph 74 % 0.00 in
12:04 86.4 °F 77.5 °F 29.99 in NW 3.0 mph 6.0 mph 75 % 0.00 in
12:09 86.5 °F 78.4 °F 29.99 in SSW 1.0 mph 6.0 mph 77 % 0.00 in
12:14 87.6 °F 77.5 °F 29.99 in ESE 3.0 mph 6.0 mph 72 % 0.00 in
12:19 88.0 °F 77.9 °F 29.99 in SSE 1.0 mph 4.0 mph 72 % 0.00 in
12:24 88.3 °F 78.6 °F 29.99 in Calm   4.0 mph 73 % 0.00 in
12:29 87.6 °F 77.5 °F 29.99 in West 3.0 mph 5.0 mph 72 % 0.00 in
12:34 87.8 °F 78.8 °F 29.99 in SE 4.0 mph 5.0 mph 75 % 0.00 in
12:39 88.7 °F 78.1 °F 29.99 in Calm   5.0 mph 71 % 0.00 in
12:40 88.9 °F 78.6 °F 29.99 in Calm   5.0 mph 72 % 0.00 in
12:45 89.1 °F 78.1 °F 29.99 in NE 1.0 mph 4.0 mph 70 % 0.00 in
12:50 89.4 °F 79.2 °F 29.99 in Calm   4.0 mph 72 % 0.00 in
12:51 89.4 °F 78.3 °F 29.99 in West 3.0 mph 4.0 mph 70 % 0.00 in
12:56 89.2 °F 77.4 °F 29.99 in Calm   5.0 mph 68 % 0.00 in
13:01 89.1 °F 76.6 °F 29.99 in WNW 3.0 mph 5.0 mph 67 % 0.00 in
13:06 88.7 °F 77.2 °F 29.99 in Calm   5.0 mph 69 % 0.00 in
13:11 89.4 °F 78.3 °F 29.99 in Calm   7.0 mph 70 % 0.00 in
13:16 90.7 °F 79.5 °F 29.99 in North 3.0 mph 7.0 mph 70 % 0.00 in
13:21 91.6 °F 78.6 °F 29.98 in West 3.0 mph 7.0 mph 66 % 0.00 in
13:26 91.9 °F 80.2 °F 29.98 in SW 2.0 mph 7.0 mph 69 % 0.00 in
13:31 92.3 °F 79.3 °F 29.98 in West 2.0 mph 7.0 mph 66 % 0.00 in
13:36 92.5 °F 79.0 °F 29.98 in WSW 2.0 mph 7.0 mph 65 % 0.00 in
13:38 92.7 °F 78.3 °F 29.98 in NW 2.0 mph 7.0 mph 63 % 0.00 in
13:43 92.5 °F 79.0 °F 29.98 in WNW 1.0 mph 7.0 mph 65 % 0.00 in
13:48 92.1 °F 78.3 °F 29.97 in SSE 1.0 mph 5.0 mph 64 % 0.00 in
13:53 92.3 °F 78.8 °F 29.97 in SSE 1.0 mph 5.0 mph 65 % 0.00 in
13:58 92.3 °F 78.8 °F 29.97 in NNW 1.0 mph 5.0 mph 65 % 0.00 in
14:03 92.7 °F 80.1 °F 29.97 in WSW 2.0 mph 7.0 mph 67 % 0.00 in
14:08 93.0 °F 79.0 °F 29.96 in SW 3.0 mph 7.0 mph 64 % 0.00 in
14:13 93.7 °F 79.2 °F 29.96 in SSW 4.0 mph 7.0 mph 63 % 0.00 in
14:18 93.7 °F 78.8 °F 29.96 in SSE 1.0 mph 5.0 mph 62 % 0.00 in
14:23 93.7 °F 79.2 °F 29.96 in NNE 3.0 mph 5.0 mph 63 % 0.00 in
14:28 93.7 °F 78.8 °F 29.96 in Calm   7.0 mph 62 % 0.00 in
14:33 93.7 °F 77.7 °F 29.96 in NNW 6.0 mph 7.0 mph 60 % 0.00 in
14:38 92.1 °F 78.3 °F 29.96 in SSW 4.0 mph 8.0 mph 64 % 0.00 in
14:43 92.7 °F 78.6 °F 29.96 in Calm   8.0 mph 64 % 0.00 in
14:48 93.4 °F 79.3 °F 29.96 in West 3.0 mph 8.0 mph 64 % 0.00 in
14:53 93.7 °F 79.2 °F 29.96 in South 2.0 mph 6.0 mph 63 % 0.00 in
14:58 93.9 °F 79.9 °F 29.95 in SSE 1.0 mph 5.0 mph 64 % 0.00 in
15:03 93.0 °F 78.1 °F 29.96 in Calm   5.0 mph 62 % 0.00 in
15:08 92.8 °F 79.3 °F 29.95 in ESE 1.0 mph 6.0 mph 65 % 0.00 in
15:13 93.7 °F 78.8 °F 29.95 in SSE 2.0 mph 6.0 mph 62 % 0.00 in
15:18 93.9 °F 79.0 °F 29.95 in NNW 1.0 mph 6.0 mph 62 % 0.00 in
15:23 94.3 °F 79.2 °F 29.95 in WSW 1.0 mph 6.0 mph 62 % 0.00 in
15:28 93.2 °F 77.7 °F 29.95 in NNW 1.0 mph 6.0 mph 61 % 0.00 in
15:33 93.2 °F 78.8 °F 29.95 in SSW 1.0 mph 6.0 mph 63 % 0.00 in
15:38 93.7 °F 79.7 °F 29.95 in NW 2.0 mph 6.0 mph 64 % 0.00 in
15:43 94.1 °F 78.1 °F 29.95 in SSW 2.0 mph 6.0 mph 60 % 0.00 in
15:49 94.1 °F 78.6 °F 29.95 in Calm   6.0 mph 61 % 0.00 in
15:54 94.5 °F 79.9 °F 29.95 in NNW 3.0 mph 4.0 mph 63 % 0.00 in
15:59 93.7 °F 78.8 °F 29.95 in WNW 2.0 mph 4.0 mph 62 % 0.00 in
16:04 92.8 °F 78.4 °F 29.95 in NW 3.0 mph 4.0 mph 63 % 0.00 in
16:09 92.1 °F 78.3 °F 29.95 in WNW 1.0 mph 6.0 mph 64 % 0.00 in
16:14 91.9 °F 78.1 °F 29.95 in North 2.0 mph 7.0 mph 64 % 0.00 in
16:19 91.6 °F 77.7 °F 29.95 in NNW 3.0 mph 7.0 mph 64 % 0.00 in
16:24 91.6 °F 78.6 °F 29.95 in Calm   7.0 mph 66 % 0.00 in
16:29 91.8 °F 78.8 °F 29.95 in NW 4.0 mph 7.0 mph 66 % 0.00 in
16:34 91.2 °F 77.7 °F 29.95 in Calm   7.0 mph 65 % 0.00 in
16:39 91.6 °F 78.6 °F 29.95 in NW 3.0 mph 7.0 mph 66 % 0.00 in
16:44 91.6 °F 78.1 °F 29.95 in NNW 1.0 mph 7.0 mph 65 % 0.00 in
16:49 91.9 °F 79.0 °F 29.94 in NW 3.0 mph 5.0 mph 66 % 0.00 in
16:54 92.1 °F 78.3 °F 29.94 in Calm   5.0 mph 64 % 0.00 in
16:59 92.7 °F 78.3 °F 29.94 in South 1.0 mph 5.0 mph 63 % 0.00 in
17:04 92.7 °F 78.3 °F 29.94 in Calm   4.0 mph 63 % 0.00 in
17:09 92.7 °F 78.6 °F 29.94 in NNW 5.0 mph 5.0 mph 64 % 0.00 in
17:14 92.3 °F 78.3 °F 29.94 in NW 3.0 mph 5.0 mph 64 % 0.00 in
19:03 88.9 °F 79.9 °F 29.94 in East 2.0 mph 6.0 mph 75 % 0.00 in
19:08 88.7 °F 79.7 °F 29.94 in Calm   6.0 mph 75 % 0.00 in
19:13 88.5 °F 79.5 °F 29.94 in NNW 2.0 mph 5.0 mph 75 % 0.00 in
19:18 88.3 °F 79.3 °F 29.94 in Calm   5.0 mph 75 % 0.00 in
19:20 88.3 °F 79.9 °F 29.95 in Calm   5.0 mph 76 % 0.00 in
19:25 88.2 °F 79.7 °F 29.95 in Calm   5.0 mph 76 % 0.00 in
19:30 88.0 °F 79.5 °F 29.95 in NW 1.0 mph 5.0 mph 76 % 0.00 in
19:35 87.8 °F 79.3 °F 29.95 in NNW 2.0 mph 5.0 mph 76 % 0.00 in
19:40 87.6 °F 79.5 °F 29.95 in ENE 1.0 mph 5.0 mph 77 % 0.00 in
19:45 87.4 °F 79.3 °F 29.95 in Calm   7.0 mph 77 % 0.00 in
19:50 87.3 °F 79.5 °F 29.95 in NW 2.0 mph 7.0 mph 78 % 0.00 in
19:55 87.1 °F 79.3 °F 29.95 in Calm   7.0 mph 78 % 0.00 in
20:00 86.7 °F 79.3 °F 29.96 in ENE 2.0 mph 4.0 mph 79 % 0.00 in
20:05 86.5 °F 79.7 °F 29.96 in ENE 3.0 mph 5.0 mph 80 % 0.00 in
20:10 86.2 °F 79.7 °F 29.96 in NNW 1.0 mph 6.0 mph 81 % 0.00 in
20:15 85.8 °F 79.7 °F 29.96 in ENE 3.0 mph 6.0 mph 82 % 0.00 in
20:20 85.6 °F 79.9 °F 29.96 in ENE 2.0 mph 6.0 mph 83 % 0.00 in
20:25 85.3 °F 80.2 °F 29.96 in NE 3.0 mph 7.0 mph 85 % 0.00 in
20:30 84.7 °F 79.7 °F 29.96 in WNW 3.0 mph 8.0 mph 85 % 0.00 in
20:35 84.6 °F 79.9 °F 29.97 in Calm   8.0 mph 86 % 0.00 in
20:40 84.4 °F 80.1 °F 29.97 in Calm   6.0 mph 87 % 0.00 in
20:45 84.4 °F 80.1 °F 29.96 in East 2.0 mph 4.0 mph 87 % 0.00 in
20:50 84.0 °F 79.7 °F 29.97 in Calm   4.0 mph 87 % 0.00 in
20:55 84.0 °F 80.1 °F 29.97 in NNW 3.0 mph 4.0 mph 88 % 0.00 in
21:00 83.8 °F 79.9 °F 29.97 in NE 2.0 mph 4.0 mph 88 % 0.00 in
21:05 83.7 °F 79.7 °F 29.97 in Calm   5.0 mph 88 % 0.00 in
21:10 83.5 °F 79.9 °F 29.97 in NE 2.0 mph 5.0 mph 89 % 0.00 in
21:15 83.3 °F 79.7 °F 29.97 in NNW 2.0 mph 5.0 mph 89 % 0.00 in
21:20 83.1 °F 79.5 °F 29.97 in NE 5.0 mph 5.0 mph 89 % 0.00 in
21:25 82.9 °F 79.3 °F 29.98 in NW 1.0 mph 5.0 mph 89 % 0.00 in
21:30 82.9 °F 79.3 °F 29.98 in ENE 1.0 mph 5.0 mph 89 % 0.00 in
21:35 82.8 °F 79.5 °F 29.98 in NW 2.0 mph 5.0 mph 90 % 0.00 in
21:40 82.6 °F 79.3 °F 29.98 in Calm   5.0 mph 90 % 0.00 in
21:45 82.6 °F 79.3 °F 29.98 in Calm   4.0 mph 90 % 0.00 in
21:50 82.4 °F 79.2 °F 29.99 in Calm   4.0 mph 90 % 0.00 in
21:55 82.2 °F 79.0 °F 29.99 in Calm   4.0 mph 90 % 0.00 in
22:00 82.2 °F 79.0 °F 29.99 in NE 1.0 mph 4.0 mph 90 % 0.00 in
22:01 82.2 °F 79.0 °F 29.99 in ENE 3.0 mph 4.0 mph 90 % 0.00 in
22:06 82.0 °F 79.2 °F 29.99 in Calm   3.0 mph 91 % 0.00 in
22:12 82.0 °F 79.2 °F 29.99 in ENE 2.0 mph 3.0 mph 91 % 0.00 in
22:17 81.9 °F 79.0 °F 29.99 in East 1.0 mph 4.0 mph 91 % 0.00 in
22:22 81.9 °F 79.0 °F 30.00 in NW 1.0 mph 4.0 mph 91 % 0.00 in
22:23 81.9 °F 79.0 °F 30.00 in Calm   4.0 mph 91 % 0.00 in
22:24 81.9 °F 79.0 °F 30.00 in Calm   4.0 mph 91 % 0.00 in
22:27 81.9 °F 79.0 °F 30.00 in Calm   4.0 mph 91 % 0.00 in
22:32 81.7 °F 79.2 °F 30.00 in ENE 2.0 mph 4.0 mph 92 % 0.00 in
22:37 81.7 °F 79.2 °F 30.01 in Calm   3.0 mph 92 % 0.00 in
22:41 81.7 °F 79.2 °F 30.01 in Calm   3.0 mph 92 % 0.00 in
22:46 81.5 °F 79.0 °F 30.01 in SE 1.0 mph 3.0 mph 92 % 0.00 in
22:51 81.3 °F 78.8 °F 30.01 in Calm   2.0 mph 92 % 0.00 in
22:56 81.3 °F 78.8 °F 30.01 in Calm   1.0 mph 92 % 0.00 in
23:01 81.3 °F 79.2 °F 30.01 in Calm   1.0 mph 93 % 0.00 in
23:06 81.3 °F 79.2 °F 30.01 in Calm   1.0 mph 93 % 0.00 in
23:11 81.3 °F 79.2 °F 30.02 in ESE 1.0 mph 1.0 mph 93 % 0.00 in
23:16 81.3 °F 79.2 °F 30.02 in East 1.0 mph 2.0 mph 93 % 0.00 in
23:21 81.5 °F 79.3 °F 30.02 in Calm   2.0 mph 93 % 0.00 in
23:26 81.5 °F 79.3 °F 30.02 in Calm   2.0 mph 93 % 0.00 in
23:31 81.5 °F 79.0 °F 30.02 in Calm   1.0 mph 92 % 0.00 in
23:36 81.5 °F 79.0 °F 30.02 in Calm   1.0 mph 92 % 0.00 in
23:41 81.7 °F 79.2 °F 30.02 in Calm   1.0 mph 92 % 0.00 in
23:46 81.7 °F 79.2 °F 30.02 in Calm   1.0 mph 92 % 0.00 in
23:51 81.7 °F 79.2 °F 30.02 in Calm   2.0 mph 92 % 0.00 in
23:56 81.7 °F 79.2 °F 30.03 in East 1.0 mph 2.0 mph 92 % 0.00 in
Spring, Texas: Villages of Bridgestone
Compliments of Weather Underground - 2.75 mb

Script developed by  Jim McMurry - jmcmurry@mwt.net Adapted for the template by  Wim van der Kuil - Leuven-Template.eu

You find our weather info also at:

UK Metoffice

WeatherCloud

Weather Underground

Mid-South Weather Network

AWEKAS

Citizen Weather Observer Program (CWOP)

HAMweather, WeatherForYou, PWS Weather

Equipment we use:

Weather-station
Davis Vantage Vue

Weather-program
Meteohub

Weather-server
Debian 7.9 x86 (Guest)

Provider
DreamHost

Davis Vantage Vue

Meteohub

Debian 7.9 x86 (Guest)

DreamHost